Weather at Denver International Airport

Public forecast

Using degrees Fahrenheit for public forecast. Weather courtesy of forecast.io.

Current aviation weather report (METAR) for Denver International Airport

Retrieved 2021/05/12 15:53 UTC (50 minutes ago):

KDEN 121553Z 28003KT 10SM SCT015 SCT100 08/02 A3028 RMK AO2 SLP236 T00830022

Aviation forecast (TAF) for Denver International Airport

Retrieved 2021/05/12 12:22 UTC (4 hours ago):

TAF KDEN 121120Z 1212/1318 20006KT P6SM SCT035 TEMPO 1212/1214 3SM BR SCT008 FM121400 29005KT P6SM FEW035 FM121900 03007KT P6SM SCT070 FM122200 06007KT P6SM SCT070 FM130200 14006KT P6SM SCT070 FM130500 21010KT P6SM SKC FM131400 24005KT P6SM SKC